sensor_id;sensor_type;location;lat;lon;timestamp;pressure;altitude;pressure_sealevel;temperature;humidity
63663;BME280;49815;51.618;0.336;2022-11-20T00:00:31;100449.49;;;7.01;54.34
63663;BME280;49815;51.618;0.336;2022-11-20T00:02:57;100447.86;;;7.95;53.42
63663;BME280;49815;51.618;0.336;2022-11-20T00:05:22;100448.16;;;7.55;53.32
63663;BME280;49815;51.618;0.336;2022-11-20T00:07:48;100446.18;;;7.76;52.32
63663;BME280;49815;51.618;0.336;2022-11-20T00:10:14;100442.24;;;7.24;52.59
63663;BME280;49815;51.618;0.336;2022-11-20T00:12:39;100437.78;;;7.22;52.97
63663;BME280;49815;51.618;0.336;2022-11-20T00:15:05;100441.02;;;7.05;52.62
63663;BME280;49815;51.618;0.336;2022-11-20T00:17:30;100443.10;;;6.91;52.72
63663;BME280;49815;51.618;0.336;2022-11-20T00:19:55;100446.53;;;6.74;53.00
63663;BME280;49815;51.618;0.336;2022-11-20T00:22:22;100449.21;;;6.78;53.49
63663;BME280;49815;51.618;0.336;2022-11-20T00:24:46;100450.15;;;6.92;53.54
63663;BME280;49815;51.618;0.336;2022-11-20T00:27:12;100448.85;;;6.43;53.62
63663;BME280;49815;51.618;0.336;2022-11-20T00:29:37;100437.35;;;6.96;53.49
63663;BME280;49815;51.618;0.336;2022-11-20T00:32:03;100432.62;;;6.59;53.33
63663;BME280;49815;51.618;0.336;2022-11-20T00:34:29;100423.38;;;6.41;53.10
63663;BME280;49815;51.618;0.336;2022-11-20T00:36:54;100419.24;;;6.81;52.97
63663;BME280;49815;51.618;0.336;2022-11-20T00:39:25;100415.02;;;6.79;52.79
63663;BME280;49815;51.618;0.336;2022-11-20T00:41:45;100413.24;;;7.04;52.84
63663;BME280;49815;51.618;0.336;2022-11-20T00:44:11;100415.88;;;7.07;52.60
63663;BME280;49815;51.618;0.336;2022-11-20T00:46:36;100413.66;;;6.97;52.41
63663;BME280;49815;51.618;0.336;2022-11-20T00:49:02;100413.75;;;6.89;52.58
63663;BME280;49815;51.618;0.336;2022-11-20T00:51:27;100408.47;;;6.96;52.40
63663;BME280;49815;51.618;0.336;2022-11-20T00:53:55;100405.50;;;6.94;52.01
63663;BME280;49815;51.618;0.336;2022-11-20T00:56:19;100405.01;;;6.81;51.85
63663;BME280;49815;51.618;0.336;2022-11-20T00:58:45;100405.88;;;6.89;52.21
63663;BME280;49815;51.618;0.336;2022-11-20T01:01:12;100406.75;;;6.85;52.37
63663;BME280;49815;51.618;0.336;2022-11-20T01:03:37;100405.56;;;6.70;52.18
63663;BME280;49815;51.618;0.336;2022-11-20T01:06:02;100404.18;;;6.57;52.26
63663;BME280;49815;51.618;0.336;2022-11-20T01:08:29;100399.11;;;6.68;52.34
63663;BME280;49815;51.618;0.336;2022-11-20T01:10:52;100396.28;;;6.53;52.24
63663;BME280;49815;51.618;0.336;2022-11-20T01:13:17;100387.94;;;7.01;52.46
63663;BME280;49815;51.618;0.336;2022-11-20T01:15:43;100385.37;;;6.85;52.31
63663;BME280;49815;51.618;0.336;2022-11-20T01:18:08;100382.83;;;7.10;52.25
63663;BME280;49815;51.618;0.336;2022-11-20T01:20:34;100379.64;;;7.24;52.09
63663;BME280;49815;51.618;0.336;2022-11-20T01:22:59;100373.52;;;6.88;52.27
63663;BME280;49815;51.618;0.336;2022-11-20T01:25:24;100369.47;;;6.79;52.49
63663;BME280;49815;51.618;0.336;2022-11-20T01:27:49;100368.83;;;7.18;52.00
63663;BME280;49815;51.618;0.336;2022-11-20T01:30:15;100371.20;;;7.52;51.58
63663;BME280;49815;51.618;0.336;2022-11-20T01:32:40;100372.42;;;7.14;51.97
63663;BME280;49815;51.618;0.336;2022-11-20T01:35:05;100376.31;;;6.99;51.84
63663;BME280;49815;51.618;0.336;2022-11-20T01:37:31;100378.63;;;6.88;52.01
63663;BME280;49815;51.618;0.336;2022-11-20T01:39:56;100379.18;;;7.26;51.78
63663;BME280;49815;51.618;0.336;2022-11-20T01:42:22;100376.01;;;7.56;51.64
63663;BME280;49815;51.618;0.336;2022-11-20T01:44:52;100369.25;;;7.15;51.73
63663;BME280;49815;51.618;0.336;2022-11-20T01:47:14;100363.24;;;7.08;51.66
63663;BME280;49815;51.618;0.336;2022-11-20T01:49:42;100356.83;;;7.57;51.63
63663;BME280;49815;51.618;0.336;2022-11-20T01:52:05;100351.63;;;7.17;51.28
63663;BME280;49815;51.618;0.336;2022-11-20T01:54:30;100348.38;;;7.33;51.64
63663;BME280;49815;51.618;0.336;2022-11-20T01:56:55;100346.77;;;7.29;51.57
63663;BME280;49815;51.618;0.336;2022-11-20T01:59:19;100342.86;;;7.40;51.61
63663;BME280;49815;51.618;0.336;2022-11-20T02:01:45;100341.10;;;7.78;51.58
63663;BME280;49815;51.618;0.336;2022-11-20T02:04:11;100338.12;;;7.37;51.48
63663;BME280;49815;51.618;0.336;2022-11-20T02:06:40;100335.15;;;7.77;51.58
63663;BME280;49815;51.618;0.336;2022-11-20T02:09:01;100332.97;;;7.30;51.59
63663;BME280;49815;51.618;0.336;2022-11-20T02:11:26;100332.02;;;7.15;51.81
63663;BME280;49815;51.618;0.336;2022-11-20T02:13:53;100325.34;;;7.32;51.79
63663;BME280;49815;51.618;0.336;2022-11-20T02:16:21;100322.31;;;7.40;51.79
63663;BME280;49815;51.618;0.336;2022-11-20T02:18:43;100317.72;;;7.56;51.57
63663;BME280;49815;51.618;0.336;2022-11-20T02:21:17;100317.52;;;7.52;51.70
63663;BME280;49815;51.618;0.336;2022-11-20T02:23:38;100312.03;;;6.84;52.33
63663;BME280;49815;51.618;0.336;2022-11-20T02:25:59;100301.25;;;7.32;52.27
63663;BME280;49815;51.618;0.336;2022-11-20T02:28:24;100295.62;;;6.95;52.01
63663;BME280;49815;51.618;0.336;2022-11-20T02:30:49;100289.56;;;7.35;52.05
63663;BME280;49815;51.618;0.336;2022-11-20T02:33:14;100288.25;;;7.49;52.17
63663;BME280;49815;51.618;0.336;2022-11-20T02:35:43;100287.02;;;7.37;52.07
63663;BME280;49815;51.618;0.336;2022-11-20T02:38:06;100280.10;;;7.32;52.07
63663;BME280;49815;51.618;0.336;2022-11-20T02:40:32;100276.99;;;6.81;52.22
63663;BME280;49815;51.618;0.336;2022-11-20T02:42:57;100275.60;;;7.27;52.51
63663;BME280;49815;51.618;0.336;2022-11-20T02:45:24;100267.80;;;7.48;52.32
63663;BME280;49815;51.618;0.336;2022-11-20T02:47:48;100265.10;;;7.16;52.32
63663;BME280;49815;51.618;0.336;2022-11-20T02:50:14;100260.17;;;7.68;52.11
63663;BME280;49815;51.618;0.336;2022-11-20T02:52:39;100259.39;;;7.43;51.85
63663;BME280;49815;51.618;0.336;2022-11-20T02:55:06;100253.33;;;7.51;51.85
63663;BME280;49815;51.618;0.336;2022-11-20T02:57:30;100251.76;;;7.30;51.67
63663;BME280;49815;51.618;0.336;2022-11-20T02:59:55;100247.79;;;7.82;51.50
63663;BME280;49815;51.618;0.336;2022-11-20T03:02:21;100242.16;;;7.85;51.28
63663;BME280;49815;51.618;0.336;2022-11-20T03:04:47;100239.90;;;7.88;51.28
63663;BME280;49815;51.618;0.336;2022-11-20T03:07:12;100234.46;;;7.44;51.59
63663;BME280;49815;51.618;0.336;2022-11-20T03:09:38;100232.01;;;7.80;51.71
63663;BME280;49815;51.618;0.336;2022-11-20T03:12:03;100228.76;;;7.69;51.79
63663;BME280;49815;51.618;0.336;2022-11-20T03:14:28;100224.46;;;7.48;51.58
63663;BME280;49815;51.618;0.336;2022-11-20T03:16:55;100221.37;;;7.55;51.56
63663;BME280;49815;51.618;0.336;2022-11-20T03:19:20;100220.50;;;7.30;51.74
63663;BME280;49815;51.618;0.336;2022-11-20T03:21:45;100223.42;;;7.16;52.15
63663;BME280;49815;51.618;0.336;2022-11-20T03:24:11;100216.32;;;7.33;52.05
63663;BME280;49815;51.618;0.336;2022-11-20T03:26:36;100212.06;;;7.22;51.78
63663;BME280;49815;51.618;0.336;2022-11-20T03:29:04;100207.78;;;7.41;51.63
63663;BME280;49815;51.618;0.336;2022-11-20T03:31:29;100207.51;;;7.39;51.47
63663;BME280;49815;51.618;0.336;2022-11-20T03:33:53;100201.52;;;7.58;51.16
63663;BME280;49815;51.618;0.336;2022-11-20T03:36:20;100199.88;;;7.86;51.13
63663;BME280;49815;51.618;0.336;2022-11-20T03:38:45;100200.26;;;7.38;51.01
63663;BME280;49815;51.618;0.336;2022-11-20T03:41:12;100199.24;;;7.75;50.97
63663;BME280;49815;51.618;0.336;2022-11-20T03:43:36;100195.54;;;7.86;50.70
63663;BME280;49815;51.618;0.336;2022-11-20T03:46:02;100197.14;;;7.56;51.05
63663;BME280;49815;51.618;0.336;2022-11-20T03:48:27;100194.40;;;7.33;51.29
63663;BME280;49815;51.618;0.336;2022-11-20T03:50:52;100192.54;;;7.26;51.62
63663;BME280;49815;51.618;0.336;2022-11-20T03:53:19;100186.19;;;7.49;51.34
63663;BME280;49815;51.618;0.336;2022-11-20T03:55:44;100186.18;;;7.25;51.13
63663;BME280;49815;51.618;0.336;2022-11-20T03:58:09;100181.09;;;7.27;50.63
63663;BME280;49815;51.618;0.336;2022-11-20T04:00:34;100181.73;;;7.31;50.98
63663;BME280;49815;51.618;0.336;2022-11-20T04:03:00;100186.47;;;6.62;51.88
63663;BME280;49815;51.618;0.336;2022-11-20T04:05:25;100183.40;;;6.73;51.82
63663;BME280;49815;51.618;0.336;2022-11-20T04:07:50;100184.86;;;6.47;52.47
63663;BME280;49815;51.618;0.336;2022-11-20T04:10:16;100178.09;;;6.43;52.33
63663;BME280;49815;51.618;0.336;2022-11-20T04:12:41;100172.28;;;7.34;51.90
63663;BME280;49815;51.618;0.336;2022-11-20T04:15:08;100171.24;;;6.62;51.95
63663;BME280;49815;51.618;0.336;2022-11-20T04:17:33;100162.80;;;6.69;51.58
63663;BME280;49815;51.618;0.336;2022-11-20T04:19:58;100161.47;;;6.89;51.76
63663;BME280;49815;51.618;0.336;2022-11-20T04:22:24;100152.31;;;6.68;51.38
63663;BME280;49815;51.618;0.336;2022-11-20T04:24:49;100152.36;;;7.25;51.81
63663;BME280;49815;51.618;0.336;2022-11-20T04:27:15;100147.95;;;7.10;51.72
63663;BME280;49815;51.618;0.336;2022-11-20T04:29:40;100146.94;;;7.25;51.90
63663;BME280;49815;51.618;0.336;2022-11-20T04:32:06;100143.34;;;7.07;51.91
63663;BME280;49815;51.618;0.336;2022-11-20T04:34:31;100139.57;;;7.15;51.55
63663;BME280;49815;51.618;0.336;2022-11-20T04:36:57;100139.50;;;7.45;51.40
63663;BME280;49815;51.618;0.336;2022-11-20T04:39:23;100139.95;;;7.51;51.83
63663;BME280;49815;51.618;0.336;2022-11-20T04:41:48;100137.85;;;7.60;51.80
63663;BME280;49815;51.618;0.336;2022-11-20T04:44:14;100133.24;;;7.01;51.28
63663;BME280;49815;51.618;0.336;2022-11-20T04:46:41;100129.46;;;7.40;51.14
63663;BME280;49815;51.618;0.336;2022-11-20T04:49:05;100123.35;;;6.86;51.68
63663;BME280;49815;51.618;0.336;2022-11-20T04:51:30;100128.69;;;7.47;51.21
63663;BME280;49815;51.618;0.336;2022-11-20T04:53:55;100125.09;;;7.54;51.37
63663;BME280;49815;51.618;0.336;2022-11-20T04:56:21;100127.51;;;7.61;51.43
63663;BME280;49815;51.618;0.336;2022-11-20T04:58:46;100126.72;;;7.53;51.79
63663;BME280;49815;51.618;0.336;2022-11-20T05:01:13;100120.00;;;7.65;52.06
63663;BME280;49815;51.618;0.336;2022-11-20T05:03:38;100115.80;;;6.80;52.65
63663;BME280;49815;51.618;0.336;2022-11-20T05:06:04;100110.76;;;6.78;52.69
63663;BME280;49815;51.618;0.336;2022-11-20T05:08:29;100104.04;;;6.97;52.68
63663;BME280;49815;51.618;0.336;2022-11-20T05:10:59;100103.70;;;6.78;52.99
63663;BME280;49815;51.618;0.336;2022-11-20T05:13:20;100097.54;;;7.05;52.31
63663;BME280;49815;51.618;0.336;2022-11-20T05:15:45;100093.01;;;7.28;52.38
63663;BME280;49815;51.618;0.336;2022-11-20T05:18:10;100089.92;;;7.39;52.13
63663;BME280;49815;51.618;0.336;2022-11-20T05:20:36;100086.16;;;7.04;52.60
63663;BME280;49815;51.618;0.336;2022-11-20T05:23:02;100080.09;;;5.81;54.80
63663;BME280;49815;51.618;0.336;2022-11-20T05:25:27;100072.82;;;6.96;53.83
63663;BME280;49815;51.618;0.336;2022-11-20T05:27:53;100068.72;;;6.97;53.09
63663;BME280;49815;51.618;0.336;2022-11-20T05:30:19;100064.10;;;6.93;53.53
63663;BME280;49815;51.618;0.336;2022-11-20T05:32:44;100062.30;;;7.18;53.50
63663;BME280;49815;51.618;0.336;2022-11-20T05:35:09;100057.35;;;6.81;53.65
63663;BME280;49815;51.618;0.336;2022-11-20T05:37:34;100054.91;;;6.41;54.23
63663;BME280;49815;51.618;0.336;2022-11-20T05:40:00;100053.61;;;6.76;53.87
63663;BME280;49815;51.618;0.336;2022-11-20T05:42:26;100053.79;;;6.86;53.76
63663;BME280;49815;51.618;0.336;2022-11-20T05:44:51;100053.43;;;6.91;53.34
63663;BME280;49815;51.618;0.336;2022-11-20T05:47:18;100051.13;;;7.65;52.86
63663;BME280;49815;51.618;0.336;2022-11-20T05:49:43;100044.08;;;7.40;53.11
63663;BME280;49815;51.618;0.336;2022-11-20T05:52:08;100036.70;;;6.94;53.61
63663;BME280;49815;51.618;0.336;2022-11-20T05:54:33;100032.18;;;7.08;53.76
63663;BME280;49815;51.618;0.336;2022-11-20T05:56:59;100030.00;;;6.82;54.07
63663;BME280;49815;51.618;0.336;2022-11-20T05:59:24;100022.84;;;7.26;53.82
63663;BME280;49815;51.618;0.336;2022-11-20T06:01:49;100023.45;;;6.66;54.53
63663;BME280;49815;51.618;0.336;2022-11-20T06:04:15;100017.93;;;7.36;53.93
63663;BME280;49815;51.618;0.336;2022-11-20T06:06:40;100014.38;;;6.40;54.25
63663;BME280;49815;51.618;0.336;2022-11-20T06:09:06;100014.53;;;7.33;53.74
63663;BME280;49815;51.618;0.336;2022-11-20T06:11:31;100011.93;;;6.87;53.77
63663;BME280;49815;51.618;0.336;2022-11-20T06:13:57;100010.04;;;6.89;53.95
63663;BME280;49815;51.618;0.336;2022-11-20T06:16:24;100002.52;;;7.20;53.93
63663;BME280;49815;51.618;0.336;2022-11-20T06:18:48;99999.53;;;7.34;53.45
63663;BME280;49815;51.618;0.336;2022-11-20T06:21:16;99992.06;;;7.36;54.19
63663;BME280;49815;51.618;0.336;2022-11-20T06:23:39;99995.33;;;7.26;54.17
63663;BME280;49815;51.618;0.336;2022-11-20T06:26:07;99997.38;;;7.18;54.55
63663;BME280;49815;51.618;0.336;2022-11-20T06:28:31;99993.03;;;7.09;55.21
63663;BME280;49815;51.618;0.336;2022-11-20T06:30:56;99988.73;;;6.68;55.70
63663;BME280;49815;51.618;0.336;2022-11-20T06:33:22;99988.78;;;6.67;55.87
63663;BME280;49815;51.618;0.336;2022-11-20T06:35:47;99983.65;;;7.01;55.45
63663;BME280;49815;51.618;0.336;2022-11-20T06:38:12;99976.24;;;7.18;55.17
63663;BME280;49815;51.618;0.336;2022-11-20T06:40:40;99970.85;;;7.10;55.37
63663;BME280;49815;51.618;0.336;2022-11-20T06:43:03;99965.95;;;7.73;54.94
63663;BME280;49815;51.618;0.336;2022-11-20T06:45:28;99965.32;;;7.68;54.87
63663;BME280;49815;51.618;0.336;2022-11-20T06:47:54;99967.37;;;7.05;55.63
63663;BME280;49815;51.618;0.336;2022-11-20T06:50:20;99956.69;;;7.44;55.03
63663;BME280;49815;51.618;0.336;2022-11-20T06:52:45;99956.65;;;7.23;55.61
63663;BME280;49815;51.618;0.336;2022-11-20T06:55:11;99952.43;;;7.51;55.30
63663;BME280;49815;51.618;0.336;2022-11-20T06:57:36;99949.95;;;7.36;55.56
63663;BME280;49815;51.618;0.336;2022-11-20T07:00:03;99947.93;;;7.07;56.05
63663;BME280;49815;51.618;0.336;2022-11-20T07:02:27;99944.89;;;7.71;55.23
63663;BME280;49815;51.618;0.336;2022-11-20T07:04:53;99941.84;;;7.90;54.91
63663;BME280;49815;51.618;0.336;2022-11-20T07:07:18;99935.80;;;7.47;55.37
63663;BME280;49815;51.618;0.336;2022-11-20T07:09:44;99922.60;;;7.59;54.93
63663;BME280;49815;51.618;0.336;2022-11-20T07:12:09;99912.61;;;7.84;55.15
63663;BME280;49815;51.618;0.336;2022-11-20T07:14:35;99910.21;;;7.33;55.90
63663;BME280;49815;51.618;0.336;2022-11-20T07:17:00;99911.55;;;7.77;55.78
63663;BME280;49815;51.618;0.336;2022-11-20T07:19:26;99906.77;;;7.57;55.49
63663;BME280;49815;51.618;0.336;2022-11-20T07:21:51;99907.58;;;7.77;55.48
63663;BME280;49815;51.618;0.336;2022-11-20T07:24:18;99904.75;;;7.96;55.37
63663;BME280;49815;51.618;0.336;2022-11-20T07:26:46;99905.03;;;8.11;55.23
63663;BME280;49815;51.618;0.336;2022-11-20T07:29:09;99914.84;;;7.39;56.13
63663;BME280;49815;51.618;0.336;2022-11-20T07:31:34;99915.13;;;7.44;56.37
63663;BME280;49815;51.618;0.336;2022-11-20T07:34:00;99918.21;;;7.14;56.98
63663;BME280;49815;51.618;0.336;2022-11-20T07:36:25;99916.22;;;7.42;56.65
63663;BME280;49815;51.618;0.336;2022-11-20T07:38:51;99912.82;;;7.65;56.39
63663;BME280;49815;51.618;0.336;2022-11-20T07:41:16;99913.71;;;7.26;56.27
63663;BME280;49815;51.618;0.336;2022-11-20T07:43:42;99910.18;;;7.92;55.92
63663;BME280;49815;51.618;0.336;2022-11-20T07:46:07;99909.23;;;7.76;55.89
63663;BME280;49815;51.618;0.336;2022-11-20T07:48:33;99908.10;;;8.10;55.73
63663;BME280;49815;51.618;0.336;2022-11-20T07:50:59;99905.67;;;7.77;55.82
63663;BME280;49815;51.618;0.336;2022-11-20T07:53:24;99905.83;;;7.99;55.83
63663;BME280;49815;51.618;0.336;2022-11-20T07:55:49;99909.98;;;7.97;55.64
63663;BME280;49815;51.618;0.336;2022-11-20T07:58:15;99921.94;;;7.82;56.35
63663;BME280;49815;51.618;0.336;2022-11-20T08:00:41;99931.88;;;7.78;56.41
63663;BME280;49815;51.618;0.336;2022-11-20T08:03:07;99935.38;;;7.86;56.52
63663;BME280;49815;51.618;0.336;2022-11-20T08:05:32;99931.81;;;7.67;57.23
63663;BME280;49815;51.618;0.336;2022-11-20T08:07:57;99913.30;;;8.01;56.02
63663;BME280;49815;51.618;0.336;2022-11-20T08:10:23;99899.38;;;8.00;55.53
63663;BME280;49815;51.618;0.336;2022-11-20T08:12:51;99893.59;;;8.27;55.42
63663;BME280;49815;51.618;0.336;2022-11-20T08:15:14;99890.86;;;8.36;55.25
63663;BME280;49815;51.618;0.336;2022-11-20T08:17:40;99891.40;;;8.23;55.34
63663;BME280;49815;51.618;0.336;2022-11-20T08:20:06;99891.60;;;8.21;55.36
63663;BME280;49815;51.618;0.336;2022-11-20T08:22:31;99892.32;;;8.42;54.87
63663;BME280;49815;51.618;0.336;2022-11-20T08:24:56;99887.61;;;8.75;54.71
63663;BME280;49815;51.618;0.336;2022-11-20T08:27:22;99882.89;;;8.90;54.27
63663;BME280;49815;51.618;0.336;2022-11-20T08:29:48;99883.42;;;8.82;54.54
63663;BME280;49815;51.618;0.336;2022-11-20T08:32:13;99890.86;;;8.64;53.93
63663;BME280;49815;51.618;0.336;2022-11-20T08:34:38;99890.55;;;8.56;53.79
63663;BME280;49815;51.618;0.336;2022-11-20T08:37:04;99891.53;;;8.79;53.64
63663;BME280;49815;51.618;0.336;2022-11-20T08:39:30;99894.42;;;8.75;53.61
63663;BME280;49815;51.618;0.336;2022-11-20T08:41:55;99900.02;;;9.23;53.40
63663;BME280;49815;51.618;0.336;2022-11-20T08:44:21;99901.04;;;9.22;53.35
63663;BME280;49815;51.618;0.336;2022-11-20T08:46:46;99904.42;;;9.34;53.39
63663;BME280;49815;51.618;0.336;2022-11-20T08:49:12;99909.82;;;8.71;53.62
63663;BME280;49815;51.618;0.336;2022-11-20T08:51:36;99915.52;;;8.65;53.79
63663;BME280;49815;51.618;0.336;2022-11-20T08:54:02;99921.14;;;8.36;55.54
63663;BME280;49815;51.618;0.336;2022-11-20T08:56:27;99922.41;;;8.94;55.17
63663;BME280;49815;51.618;0.336;2022-11-20T08:58:53;99924.86;;;8.11;57.30
63663;BME280;49815;51.618;0.336;2022-11-20T09:01:18;99923.50;;;8.40;56.64
63663;BME280;49815;51.618;0.336;2022-11-20T09:03:43;99924.19;;;7.31;59.46
63663;BME280;49815;51.618;0.336;2022-11-20T09:06:09;99919.86;;;7.39;59.06
63663;BME280;49815;51.618;0.336;2022-11-20T09:08:35;99921.95;;;8.23;58.39
63663;BME280;49815;51.618;0.336;2022-11-20T09:11:00;99933.61;;;8.10;59.45
63663;BME280;49815;51.618;0.336;2022-11-20T09:13:27;99933.43;;;8.03;58.16
63663;BME280;49815;51.618;0.336;2022-11-20T09:15:53;99938.86;;;8.21;57.84
63663;BME280;49815;51.618;0.336;2022-11-20T09:18:16;99940.45;;;8.38;56.92
63663;BME280;49815;51.618;0.336;2022-11-20T09:20:42;99943.09;;;8.68;56.79
63663;BME280;49815;51.618;0.336;2022-11-20T09:23:07;99945.36;;;7.61;57.95
63663;BME280;49815;51.618;0.336;2022-11-20T09:25:33;99942.54;;;7.14;59.68
63663;BME280;49815;51.618;0.336;2022-11-20T09:27:58;99937.58;;;7.77;58.53
63663;BME280;49815;51.618;0.336;2022-11-20T09:30:25;99936.16;;;7.94;58.17
63663;BME280;49815;51.618;0.336;2022-11-20T09:32:49;99939.62;;;7.52;58.27
63663;BME280;49815;51.618;0.336;2022-11-20T09:35:15;99936.72;;;7.61;57.58
63663;BME280;49815;51.618;0.336;2022-11-20T09:37:40;99933.60;;;8.51;56.57
63663;BME280;49815;51.618;0.336;2022-11-20T09:40:09;99932.94;;;8.78;55.89
63663;BME280;49815;51.618;0.336;2022-11-20T09:42:37;99934.45;;;8.90;55.24
63663;BME280;49815;51.618;0.336;2022-11-20T09:45:12;99939.73;;;9.14;54.81
63663;BME280;49815;51.618;0.336;2022-11-20T09:47:30;99936.41;;;8.61;54.64
63663;BME280;49815;51.618;0.336;2022-11-20T09:49:59;99936.54;;;8.59;55.02
63663;BME280;49815;51.618;0.336;2022-11-20T09:52:20;99937.57;;;8.36;55.92
63663;BME280;49815;51.618;0.336;2022-11-20T09:54:41;99934.54;;;8.41;55.04
63663;BME280;49815;51.618;0.336;2022-11-20T09:57:09;99936.39;;;7.97;56.72
63663;BME280;49815;51.618;0.336;2022-11-20T09:59:34;99935.60;;;7.85;57.17
63663;BME280;49815;51.618;0.336;2022-11-20T10:01:55;99940.98;;;8.49;56.88
63663;BME280;49815;51.618;0.336;2022-11-20T10:04:22;99948.30;;;9.17;55.85
63663;BME280;49815;51.618;0.336;2022-11-20T10:07:02;99948.41;;;7.10;59.45
63663;BME280;49815;51.618;0.336;2022-11-20T10:09:21;99940.59;;;8.05;57.47
63663;BME280;49815;51.618;0.336;2022-11-20T10:11:46;99946.81;;;7.29;59.84
63663;BME280;49815;51.618;0.336;2022-11-20T10:14:09;99946.75;;;7.48;59.36
63663;BME280;49815;51.618;0.336;2022-11-20T10:16:36;99941.65;;;6.86;60.21
63663;BME280;49815;51.618;0.336;2022-11-20T10:19:03;99927.93;;;7.85;58.34
63663;BME280;49815;51.618;0.336;2022-11-20T10:21:26;99930.58;;;7.62;58.97
63663;BME280;49815;51.618;0.336;2022-11-20T10:23:54;99933.09;;;7.36;60.01
63663;BME280;49815;51.618;0.336;2022-11-20T10:26:17;99926.22;;;7.31;58.80
63663;BME280;49815;51.618;0.336;2022-11-20T10:28:48;99915.40;;;8.13;57.17
63663;BME280;49815;51.618;0.336;2022-11-20T10:31:04;99917.44;;;5.91;62.37
63663;BME280;49815;51.618;0.336;2022-11-20T10:33:27;99917.58;;;7.10;59.99
63663;BME280;49815;51.618;0.336;2022-11-20T10:35:54;99923.80;;;7.59;58.82
63663;BME280;49815;51.618;0.336;2022-11-20T10:38:21;99917.87;;;8.97;56.32
63663;BME280;49815;51.618;0.336;2022-11-20T10:40:44;99919.98;;;8.51;57.47
63663;BME280;49815;51.618;0.336;2022-11-20T10:43:13;99919.96;;;8.55;56.24
63663;BME280;49815;51.618;0.336;2022-11-20T10:45:43;99922.43;;;8.54;57.71
63663;BME280;49815;51.618;0.336;2022-11-20T10:48:09;99922.89;;;8.67;56.87
63663;BME280;49815;51.618;0.336;2022-11-20T10:50:25;99922.89;;;6.39;61.87
63663;BME280;49815;51.618;0.336;2022-11-20T10:53:02;99918.01;;;7.95;59.34
63663;BME280;49815;51.618;0.336;2022-11-20T10:55:25;99914.78;;;7.70;59.33
63663;BME280;49815;51.618;0.336;2022-11-20T10:57:52;99909.22;;;8.06;58.28
63663;BME280;49815;51.618;0.336;2022-11-20T11:00:08;99901.70;;;7.89;59.15
63663;BME280;49815;51.618;0.336;2022-11-20T11:02:34;99903.58;;;7.46;59.88
63663;BME280;49815;51.618;0.336;2022-11-20T11:04:57;99902.41;;;9.12;56.06
63663;BME280;49815;51.618;0.336;2022-11-20T11:07:26;99904.16;;;7.62;57.80
63663;BME280;49815;51.618;0.336;2022-11-20T11:09:50;99902.44;;;8.74;56.82
63663;BME280;49815;51.618;0.336;2022-11-20T11:12:13;99895.61;;;8.34;57.97
63663;BME280;49815;51.618;0.336;2022-11-20T11:14:44;99903.77;;;6.82;60.11
63663;BME280;49815;51.618;0.336;2022-11-20T11:19:30;99900.42;;;8.36;56.69
63663;BME280;49815;51.618;0.336;2022-11-20T11:21:56;99898.39;;;8.65;56.85
63663;BME280;49815;51.618;0.336;2022-11-20T11:24:22;99896.50;;;8.67;55.11
63663;BME280;49815;51.618;0.336;2022-11-20T11:26:51;99898.55;;;8.06;57.66
63663;BME280;49815;51.618;0.336;2022-11-20T11:29:16;99898.19;;;8.42;57.28
63663;BME280;49815;51.618;0.336;2022-11-20T11:31:36;99892.30;;;9.42;56.06
63663;BME280;49815;51.618;0.336;2022-11-20T11:34:05;99891.57;;;9.37;54.28
63663;BME280;49815;51.618;0.336;2022-11-20T11:36:27;99895.14;;;8.94;54.82
63663;BME280;49815;51.618;0.336;2022-11-20T11:38:53;99902.51;;;7.24;57.72
63663;BME280;49815;51.618;0.336;2022-11-20T11:41:22;99901.82;;;9.11;54.70
63663;BME280;49815;51.618;0.336;2022-11-20T11:43:52;99904.22;;;7.70;56.91
63663;BME280;49815;51.618;0.336;2022-11-20T11:46:24;99901.38;;;9.07;54.36
63663;BME280;49815;51.618;0.336;2022-11-20T11:48:35;99901.94;;;10.20;52.28
63663;BME280;49815;51.618;0.336;2022-11-20T11:51:00;99896.84;;;10.51;52.13
63663;BME280;49815;51.618;0.336;2022-11-20T11:53:27;99899.15;;;9.81;52.27
63663;BME280;49815;51.618;0.336;2022-11-20T11:55:56;99907.86;;;8.67;54.34
63663;BME280;49815;51.618;0.336;2022-11-20T12:00:49;99911.73;;;9.25;53.70
63663;BME280;49815;51.618;0.336;2022-11-20T12:03:12;99906.11;;;9.06;53.47
63663;BME280;49815;51.618;0.336;2022-11-20T12:05:38;99895.45;;;9.24;52.84
63663;BME280;49815;51.618;0.336;2022-11-20T12:08:00;99885.09;;;9.47;51.88
63663;BME280;49815;51.618;0.336;2022-11-20T12:10:33;99881.54;;;10.29;50.41
63663;BME280;49815;51.618;0.336;2022-11-20T12:12:53;99884.85;;;10.35;49.87
63663;BME280;49815;51.618;0.336;2022-11-20T12:15:22;99890.83;;;10.95;49.44
63663;BME280;49815;51.618;0.336;2022-11-20T12:17:39;99888.34;;;9.98;50.73
63663;BME280;49815;51.618;0.336;2022-11-20T12:20:11;99888.52;;;9.56;50.38
63663;BME280;49815;51.618;0.336;2022-11-20T12:22:37;99885.55;;;9.16;50.36
63663;BME280;49815;51.618;0.336;2022-11-20T12:25:00;99885.82;;;9.00;52.24
63663;BME280;49815;51.618;0.336;2022-11-20T12:27:39;99892.02;;;9.06;51.00
63663;BME280;49815;51.618;0.336;2022-11-20T12:29:51;99890.48;;;9.39;50.41
63663;BME280;49815;51.618;0.336;2022-11-20T12:34:46;99891.84;;;9.13;50.62
63663;BME280;49815;51.618;0.336;2022-11-20T12:37:10;99894.81;;;8.81;52.93
63663;BME280;49815;51.618;0.336;2022-11-20T12:39:35;99894.65;;;9.08;51.19
63663;BME280;49815;51.618;0.336;2022-11-20T12:42:06;99896.32;;;10.05;49.78
63663;BME280;49815;51.618;0.336;2022-11-20T12:44:29;99901.59;;;9.53;49.92
63663;BME280;49815;51.618;0.336;2022-11-20T12:46:47;99904.94;;;9.50;49.62
63663;BME280;49815;51.618;0.336;2022-11-20T12:49:21;99910.06;;;8.87;52.37
63663;BME280;49815;51.618;0.336;2022-11-20T12:51:48;99908.73;;;8.78;51.33
63663;BME280;49815;51.618;0.336;2022-11-20T12:54:14;99906.19;;;9.72;50.24
63663;BME280;49815;51.618;0.336;2022-11-20T12:56:33;99901.87;;;10.38;48.66
63663;BME280;49815;51.618;0.336;2022-11-20T12:59:01;99899.08;;;9.68;48.68
63663;BME280;49815;51.618;0.336;2022-11-20T13:01:24;99905.83;;;9.59;48.45